Time;durP1;ratioP1;P1;durP2;ratioP2;P2;SDS_P1;SDS_P2;PMS_P1;PMS_P2;Temp;Humidity;BMP_temperature;BMP_pressure;BME280_temperature;BME280_humidity;BME280_pressure;Samples;Min_cycle;Max_cycle;Signal;HPM_P1;HPM_P2
2022/10/07 00:02:13;;;;;;;53.25;37.22;;;;;;;;;;6267666;28;20048;-65
2022/10/07 00:05:15;;;;;;;56.50;39.38;;;;;;;;;;6271935;28;20059;-65
2022/10/07 00:08:17;;;;;;;58.08;39.90;;;;;;;;;;6276670;28;20383;-64
2022/10/07 00:11:20;;;;;;;54.85;38.65;;;;;;;;;;6282480;28;20060;-64
2022/10/07 00:14:23;;;;;;;56.15;39.65;;;;;;;;;;6281401;28;20044;-65
2022/10/07 00:17:24;;;;;;;50.33;36.90;;;;;;;;;;6277169;28;20049;-65
2022/10/07 00:20:26;;;;;;;56.38;39.80;;;;;;;;;;6276199;28;20279;-64
2022/10/07 00:23:28;;;;;;;52.50;38.33;;;;;;;;;;6273436;28;20057;-65
2022/10/07 00:26:32;;;;;;;55.25;38.72;;;;;;;;;;6277856;28;20225;-65
2022/10/07 00:29:35;;;;;;;56.00;38.78;;;;;;;;;;6280049;28;20045;-65
2022/10/07 00:32:36;;;;;;;52.17;38.75;;;;;;;;;;6274964;28;20040;-65
2022/10/07 00:35:38;;;;;;;57.83;39.65;;;;;;;;;;6274763;28;20044;-66
2022/10/07 00:38:40;;;;;;;55.63;38.40;;;;;;;;;;6281248;28;20049;-65
2022/10/07 00:41:43;;;;;;;54.67;38.88;;;;;;;;;;6276937;28;20045;-65
2022/10/07 00:44:47;;;;;;;52.03;38.40;;;;;;;;;;6273635;28;20537;-65
2022/10/07 00:47:50;;;;;;;52.15;38.30;;;;;;;;;;6276208;28;20208;-65
2022/10/07 00:50:54;;;;;;;53.10;38.65;;;;;;;;;;6275192;28;20281;-65
2022/10/07 00:53:56;;;;;;;56.03;37.42;;;;;;;;;;6272452;28;20102;-65
2022/10/07 00:56:58;;;;;;;58.78;39.88;;;;;;;;;;6274492;28;20053;-64
2022/10/07 01:00:01;;;;;;;58.47;37.97;;;;;;;;;;6275167;28;20056;-66
2022/10/07 01:03:03;;;;;;;59.60;38.33;;;;;;;;;;6276118;28;20041;-64
2022/10/07 01:06:05;;;;;;;62.50;40.03;;;;;;;;;;6273490;28;20179;-64
2022/10/07 01:09:08;;;;;;;59.85;39.10;;;;;;;;;;6279399;28;20325;-64
2022/10/07 01:12:16;;;;;;;57.70;37.38;;;;;;;;;;6274833;28;20052;-65
2022/10/07 01:15:26;;;;;;;53.60;37.90;;;;;;;;;;6275909;28;20045;-64
2022/10/07 01:18:32;;;;;;;53.10;37.50;;;;;;;;;;6270158;28;20245;-64
2022/10/07 01:21:39;;;;;;;51.53;37.05;;;;;;;;;;6270344;28;20060;-65
2022/10/07 01:24:43;;;;;;;55.67;37.42;;;;;;;;;;6275861;28;20057;-66
2022/10/07 01:27:49;;;;;;;54.22;39.58;;;;;;;;;;6275513;28;20056;-64
2022/10/07 01:30:54;;;;;;;49.30;35.90;;;;;;;;;;6273460;28;20363;-64
2022/10/07 01:33:56;;;;;;;51.28;37.45;;;;;;;;;;6271123;28;20156;-65
2022/10/07 01:36:58;;;;;;;52.80;37.80;;;;;;;;;;6276392;28;20310;-65
2022/10/07 01:40:04;;;;;;;54.90;37.90;;;;;;;;;;6275069;28;20068;-64
2022/10/07 01:43:07;;;;;;;54.58;38.45;;;;;;;;;;6273201;28;20337;-66
2022/10/07 01:46:12;;;;;;;54.05;37.63;;;;;;;;;;6269326;28;20099;-66
2022/10/07 01:49:14;;;;;;;52.05;37.30;;;;;;;;;;6278110;28;20232;-64
2022/10/07 01:52:41;;;;;;;52.55;37.70;;;;;;;;;;6269433;28;20052;-64
2022/10/07 01:56:08;;;;;;;50.67;37.28;;;;;;;;;;6281729;28;20071;-65
2022/10/07 01:59:35;;;;;;;54.95;37.83;;;;;;;;;;6273191;28;20111;-64
2022/10/07 02:02:48;;;;;;;53.97;37.45;;;;;;;;;;6283696;28;20718;-65
2022/10/07 02:05:52;;;;;;;53.25;37.60;;;;;;;;;;6282485;28;20093;-65
2022/10/07 02:08:55;;;;;;;54.78;39.45;;;;;;;;;;6283204;28;20099;-65
2022/10/07 02:12:00;;;;;;;54.45;38.30;;;;;;;;;;6281248;28;20044;-65
2022/10/07 02:15:09;;;;;;;52.95;37.15;;;;;;;;;;6271229;28;20053;-63
2022/10/07 02:18:14;;;;;;;47.25;36.22;;;;;;;;;;6276570;28;20052;-64
2022/10/07 02:21:16;;;;;;;55.60;38.25;;;;;;;;;;6282744;28;20311;-64
2022/10/07 02:24:20;;;;;;;51.90;37.25;;;;;;;;;;6279425;28;20057;-65
2022/10/07 02:27:23;;;;;;;;;;;;;;;;;;6279539;28;20268;-65
2022/10/07 02:30:26;;;;;;;51.97;36.70;;;;;;;;;;6282028;28;20189;-66
2022/10/07 02:33:29;;;;;;;52.25;37.22;;;;;;;;;;6281665;28;20128;-65
2022/10/07 02:36:34;;;;;;;54.17;37.47;;;;;;;;;;6281854;28;20060;-65
2022/10/07 02:39:36;;;;;;;52.28;37.67;;;;;;;;;;6278101;28;20041;-64
2022/10/07 02:42:41;;;;;;;55.75;37.50;;;;;;;;;;6282399;28;20147;-64
2022/10/07 02:45:45;;;;;;;50.72;36.30;;;;;;;;;;6283120;28;20325;-64
2022/10/07 02:48:53;;;;;;;52.80;37.20;;;;;;;;;;6288129;28;20108;-65
2022/10/07 02:51:58;;;;;;;53.22;36.78;;;;;;;;;;6288475;28;20264;-65
2022/10/07 02:55:03;;;;;;;50.58;36.70;;;;;;;;;;6287248;28;20135;-64
2022/10/07 02:58:07;;;;;;;52.60;36.80;;;;;;;;;;6282903;28;20056;-64
2022/10/07 03:01:10;;;;;;;51.65;37.00;;;;;;;;;;6282807;28;20068;-64
2022/10/07 03:04:12;;;;;;;51.65;36.00;;;;;;;;;;6274851;28;20053;-64
2022/10/07 03:07:14;;;;;;;52.75;38.30;;;;;;;;;;6279079;28;20052;-64
2022/10/07 03:10:16;;;;;;;50.35;36.53;;;;;;;;;;6277792;28;20082;-64
2022/10/07 03:13:18;;;;;;;53.08;36.88;;;;;;;;;;6283040;28;20337;-64
2022/10/07 03:16:21;;;;;;;53.38;36.95;;;;;;;;;;6283570;28;20048;-64
2022/10/07 03:19:22;;;;;;;53.17;37.28;;;;;;;;;;6284009;28;20056;-64
2022/10/07 03:22:24;;;;;;;53.22;36.90;;;;;;;;;;6278698;28;20045;-65
2022/10/07 03:25:26;;;;;;;53.30;37.22;;;;;;;;;;6281715;28;20053;-66
2022/10/07 03:28:30;;;;;;;49.58;36.00;;;;;;;;;;6285035;28;20120;-64
2022/10/07 03:31:33;;;;;;;53.53;37.88;;;;;;;;;;6279775;28;20068;-65
2022/10/07 03:34:34;;;;;;;53.13;38.70;;;;;;;;;;6285954;28;20041;-65
2022/10/07 03:37:36;;;;;;;53.72;36.67;;;;;;;;;;6288036;28;20094;-64
2022/10/07 03:40:38;;;;;;;54.92;38.03;;;;;;;;;;6284154;28;20069;-64
2022/10/07 03:43:40;;;;;;;52.05;37.40;;;;;;;;;;6282160;28;20052;-65
2022/10/07 03:46:42;;;;;;;49.05;36.20;;;;;;;;;;6281004;28;20057;-64
2022/10/07 03:49:44;;;;;;;55.47;36.33;;;;;;;;;;6283378;28;20060;-64
2022/10/07 03:52:46;;;;;;;52.55;36.72;;;;;;;;;;6281461;28;20517;-64
2022/10/07 03:55:47;;;;;;;51.08;36.10;;;;;;;;;;6280992;28;20053;-64
2022/10/07 03:58:49;;;;;;;53.55;35.95;;;;;;;;;;6284126;28;20063;-64
2022/10/07 04:01:52;;;;;;;50.10;36.35;;;;;;;;;;6272630;28;20344;-64
2022/10/07 04:04:53;;;;;;;49.73;35.67;;;;;;;;;;6270333;28;20052;-64
2022/10/07 04:07:55;;;;;;;47.72;34.80;;;;;;;;;;6277513;28;20438;-64
2022/10/07 04:10:57;;;;;;;51.88;34.22;;;;;;;;;;6285415;28;20052;-65
2022/10/07 04:13:59;;;;;;;50.28;35.58;;;;;;;;;;6280321;28;20044;-64
2022/10/07 04:17:02;;;;;;;48.20;34.13;;;;;;;;;;6274416;28;20048;-63
2022/10/07 04:20:04;;;;;;;50.75;36.08;;;;;;;;;;6276341;28;20096;-64
2022/10/07 04:23:06;;;;;;;51.75;35.35;;;;;;;;;;6277463;28;20299;-64
2022/10/07 04:26:09;;;;;;;47.75;35.65;;;;;;;;;;6276186;28;20340;-64
2022/10/07 04:29:11;;;;;;;50.70;34.83;;;;;;;;;;6258380;28;20056;-64
2022/10/07 04:32:14;;;;;;;48.90;35.72;;;;;;;;;;6275979;28;20382;-64
2022/10/07 04:35:16;;;;;;;53.83;37.58;;;;;;;;;;6270513;28;20335;-64
2022/10/07 04:38:18;;;;;;;50.05;35.90;;;;;;;;;;6278194;28;20056;-64
2022/10/07 04:41:20;;;;;;;53.28;36.47;;;;;;;;;;6271345;28;20041;-64
2022/10/07 04:44:21;;;;;;;51.95;36.03;;;;;;;;;;6274346;28;20118;-65
2022/10/07 04:47:25;;;;;;;53.85;36.85;;;;;;;;;;6274678;28;20055;-63
2022/10/07 04:50:26;;;;;;;56.42;36.72;;;;;;;;;;6271520;28;20045;-64
2022/10/07 04:53:28;;;;;;;51.58;36.20;;;;;;;;;;6275102;28;20091;-64
2022/10/07 04:56:30;;;;;;;54.72;36.35;;;;;;;;;;6277028;28;20128;-64
2022/10/07 04:59:32;;;;;;;51.30;35.75;;;;;;;;;;6274277;28;20053;-67
2022/10/07 05:02:35;;;;;;;54.85;36.30;;;;;;;;;;6275600;28;20056;-67
2022/10/07 05:05:38;;;;;;;52.83;36.30;;;;;;;;;;6272562;28;20068;-65
2022/10/07 05:08:42;;;;;;;54.00;36.77;;;;;;;;;;6273087;28;20045;-64
2022/10/07 05:11:44;;;;;;;50.55;36.40;;;;;;;;;;6271737;28;20135;-63
2022/10/07 05:14:46;;;;;;;55.22;36.47;;;;;;;;;;6273974;28;20053;-65
2022/10/07 05:17:49;;;;;;;52.25;36.60;;;;;;;;;;6271159;28;20111;-65
2022/10/07 05:20:51;;;;;;;51.03;34.70;;;;;;;;;;6270275;28;20076;-65
2022/10/07 05:23:52;;;;;;;51.00;33.90;;;;;;;;;;6276235;28;20059;-66
2022/10/07 05:26:54;;;;;;;48.65;33.50;;;;;;;;;;6272868;28;20339;-65
2022/10/07 05:29:56;;;;;;;50.03;33.33;;;;;;;;;;6272559;28;20727;-65
2022/10/07 05:33:00;;;;;;;48.40;32.28;;;;;;;;;;6274736;28;20075;-68
2022/10/07 05:36:01;;;;;;;;;;;;;;;;;;6274328;28;20324;-66
2022/10/07 05:39:03;;;;;;;44.25;32.55;;;;;;;;;;6274432;28;20100;-68
2022/10/07 05:42:05;;;;;;;41.85;32.25;;;;;;;;;;6274444;28;20041;-68
2022/10/07 05:45:08;;;;;;;47.70;33.53;;;;;;;;;;6276154;28;20049;-67
2022/10/07 05:48:11;;;;;;;49.45;32.42;;;;;;;;;;6274666;28;20045;-68
2022/10/07 05:51:13;;;;;;;46.88;32.17;;;;;;;;;;6275518;28;20072;-67
2022/10/07 05:54:15;;;;;;;51.10;31.10;;;;;;;;;;6275535;28;20045;-70
2022/10/07 05:57:17;;;;;;;43.38;32.15;;;;;;;;;;6277255;28;20057;-66
2022/10/07 06:00:19;;;;;;;41.00;29.88;;;;;;;;;;6272771;28;20321;-65
2022/10/07 06:03:24;;;;;;;44.17;29.33;;;;;;;;;;6272364;28;20078;-69
2022/10/07 06:06:28;;;;;;;41.53;30.55;;;;;;;;;;6272602;28;20075;-66
2022/10/07 06:13:08;;;;;;;46.53;30.27;;;;;;;;;;6274035;28;20041;-68
2022/10/07 06:16:10;;;;;;;40.92;28.55;;;;;;;;;;6276656;28;20067;-67
2022/10/07 06:19:21;;;;;;;39.63;28.63;;;;;;;;;;6275944;28;20050;-67
2022/10/07 06:22:22;;;;;;;45.95;29.67;;;;;;;;;;6276570;28;20118;-67
2022/10/07 06:25:24;;;;;;;39.35;28.33;;;;;;;;;;6279216;28;20752;-70
2022/10/07 06:28:32;;;;;;;39.50;27.85;;;;;;;;;;6273528;28;20391;-71
2022/10/07 06:31:34;;;;;;;37.00;27.88;;;;;;;;;;6275712;28;20057;-69
2022/10/07 06:34:37;;;;;;;40.55;28.40;;;;;;;;;;6273213;28;20975;-66
2022/10/07 06:37:39;;;;;;;38.30;28.23;;;;;;;;;;6274815;28;20329;-66
2022/10/07 06:40:41;;;;;;;39.90;27.85;;;;;;;;;;6280088;28;20178;-66
2022/10/07 06:43:43;;;;;;;39.45;28.55;;;;;;;;;;6277109;28;20120;-69
2022/10/07 06:46:45;;;;;;;39.25;27.15;;;;;;;;;;6278445;28;20059;-68
2022/10/07 06:49:48;;;;;;;36.60;26.77;;;;;;;;;;6278657;28;20221;-67
2022/10/07 06:52:50;;;;;;;33.75;25.75;;;;;;;;;;6277268;28;20268;-69
2022/10/07 06:55:53;;;;;;;36.67;25.85;;;;;;;;;;6281247;28;20048;-67
2022/10/07 06:58:55;;;;;;;38.60;25.58;;;;;;;;;;6276895;28;20382;-68
2022/10/07 07:01:58;;;;;;;35.95;26.58;;;;;;;;;;6256382;28;20053;-71
2022/10/07 07:05:03;;;;;;;197.05;35.80;;;;;;;;;;6255960;28;20394;-69
2022/10/07 07:08:05;;;;;;;49.00;25.73;;;;;;;;;;6252358;28;20305;-68
2022/10/07 07:11:34;;;;;;;37.97;25.13;;;;;;;;;;6252351;28;20344;-68
2022/10/07 07:14:33;;;;;;;42.10;26.40;;;;;;;;;;6249964;28;20153;-69
2022/10/07 07:17:35;;;;;;;39.10;26.38;;;;;;;;;;6250571;28;20049;-69
2022/10/07 07:20:38;;;;;;;33.53;24.67;;;;;;;;;;6255902;28;20256;-69
2022/10/07 07:23:40;;;;;;;34.53;25.95;;;;;;;;;;6273725;28;20056;-68
2022/10/07 07:26:42;;;;;;;36.08;25.35;;;;;;;;;;6279010;28;20040;-67
2022/10/07 07:29:43;;;;;;;40.03;25.63;;;;;;;;;;6273902;28;20053;-69
2022/10/07 07:32:45;;;;;;;42.88;25.20;;;;;;;;;;6277674;28;20048;-69
2022/10/07 07:35:49;;;;;;;39.28;25.95;;;;;;;;;;6277371;28;20048;-68
2022/10/07 07:38:52;;;;;;;41.92;26.95;;;;;;;;;;6274476;28;20275;-69
2022/10/07 07:41:54;;;;;;;43.40;28.05;;;;;;;;;;6276590;28;20069;-67
2022/10/07 07:44:55;;;;;;;41.25;27.90;;;;;;;;;;6276480;28;20207;-69
2022/10/07 07:47:57;;;;;;;39.53;27.85;;;;;;;;;;6276098;28;20095;-70
2022/10/07 07:51:00;;;;;;;38.38;27.35;;;;;;;;;;6275011;28;20071;-68
2022/10/07 07:54:02;;;;;;;38.83;27.30;;;;;;;;;;6275922;28;20045;-66
2022/10/07 07:57:04;;;;;;;37.05;26.85;;;;;;;;;;6278771;28;20056;-68
2022/10/07 08:00:07;;;;;;;34.28;27.33;;;;;;;;;;6272393;28;20056;-69
2022/10/07 08:03:08;;;;;;;37.75;25.90;;;;;;;;;;6271904;28;20045;-69
2022/10/07 08:06:12;;;;;;;34.53;26.50;;;;;;;;;;6271418;28;20053;-68
2022/10/07 08:09:14;;;;;;;36.88;27.83;;;;;;;;;;6279531;28;21399;-67
2022/10/07 08:12:16;;;;;;;35.38;25.50;;;;;;;;;;6272016;28;20060;-66
2022/10/07 08:15:18;;;;;;;37.95;26.13;;;;;;;;;;6270558;28;20048;-69
2022/10/07 08:18:19;;;;;;;33.95;24.92;;;;;;;;;;6269300;28;20190;-66
2022/10/07 08:21:25;;;;;;;37.78;25.88;;;;;;;;;;6269208;28;20053;-67
2022/10/07 08:24:27;;;;;;;34.20;24.83;;;;;;;;;;6271285;28;20049;-67
2022/10/07 08:27:29;;;;;;;38.78;26.73;;;;;;;;;;6275554;28;20056;-67
2022/10/07 08:30:30;;;;;;;30.38;24.55;;;;;;;;;;6260827;28;20452;-66
2022/10/07 08:33:34;;;;;;;31.88;24.35;;;;;;;;;;6262979;28;20053;-67
2022/10/07 08:36:36;;;;;;;;;;;;;;;;;;6269491;28;20087;-64
2022/10/07 08:39:38;;;;;;;42.95;25.83;;;;;;;;;;6272011;28;19927;-66
2022/10/07 08:42:41;;;;;;;33.55;22.38;;;;;;;;;;6277941;28;20068;-65
2022/10/07 08:45:44;;;;;;;28.58;22.75;;;;;;;;;;6273163;28;20064;-67
2022/10/07 08:48:51;;;;;;;32.75;23.38;;;;;;;;;;6273543;28;20228;-67
2022/10/07 08:51:57;;;;;;;32.28;23.73;;;;;;;;;;6276527;28;21033;-67
2022/10/07 08:55:00;;;;;;;29.02;21.95;;;;;;;;;;6273831;28;20151;-67
2022/10/07 08:58:17;;;;;;;30.73;20.70;;;;;;;;;;6273751;28;20118;-67
2022/10/07 09:01:29;;;;;;;30.20;21.25;;;;;;;;;;6274508;28;20120;-67
2022/10/07 09:04:40;;;;;;;29.00;20.63;;;;;;;;;;6279201;28;20138;-67
2022/10/07 09:07:46;;;;;;;27.15;19.83;;;;;;;;;;6274473;28;20068;-66
2022/10/07 09:10:52;;;;;;;23.17;20.00;;;;;;;;;;6273560;28;20049;-67
2022/10/07 09:13:56;;;;;;;29.15;23.08;;;;;;;;;;6272241;28;20082;-67
2022/10/07 09:17:01;;;;;;;32.22;21.58;;;;;;;;;;6275548;28;20061;-66
2022/10/07 09:20:06;;;;;;;27.00;20.50;;;;;;;;;;6273892;28;20056;-68
2022/10/07 09:23:14;;;;;;;25.85;18.08;;;;;;;;;;6275157;28;20056;-66
2022/10/07 09:26:16;;;;;;;27.10;19.40;;;;;;;;;;6246028;28;20065;-67
2022/10/07 09:29:19;;;;;;;26.88;22.58;;;;;;;;;;6248774;28;20049;-67
2022/10/07 09:32:21;;;;;;;24.00;20.00;;;;;;;;;;6246131;28;20203;-66
2022/10/07 09:35:25;;;;;;;27.02;20.20;;;;;;;;;;6250957;28;20187;-67
2022/10/07 09:38:36;;;;;;;23.63;20.30;;;;;;;;;;6252518;28;20244;-66
2022/10/07 09:41:38;;;;;;;26.70;21.27;;;;;;;;;;6252376;28;20333;-65
2022/10/07 09:44:40;;;;;;;24.00;20.73;;;;;;;;;;6263669;28;20275;-65
2022/10/07 09:47:42;;;;;;;28.55;22.77;;;;;;;;;;6272746;28;20112;-65
2022/10/07 09:50:45;;;;;;;26.27;23.08;;;;;;;;;;6284637;28;20047;-64
2022/10/07 09:54:09;;;;;;;22.48;19.30;;;;;;;;;;6281489;28;20348;-66
2022/10/07 09:57:24;;;;;;;28.98;24.80;;;;;;;;;;6282441;28;20077;-65
2022/10/07 10:00:27;;;;;;;33.42;29.35;;;;;;;;;;6278719;28;20249;-65
2022/10/07 10:03:29;;;;;;;31.83;27.02;;;;;;;;;;6280878;28;20049;-67
2022/10/07 10:06:31;;;;;;;28.58;24.65;;;;;;;;;;6279595;28;20045;-65
2022/10/07 10:09:34;;;;;;;;;;;;;;;;;;6278188;28;20048;-67
2022/10/07 10:12:37;;;;;;;31.13;26.92;;;;;;;;;;6279859;28;19962;-65
2022/10/07 10:15:41;;;;;;;27.73;22.95;;;;;;;;;;6281636;28;20262;-66
2022/10/07 10:18:53;;;;;;;25.33;22.45;;;;;;;;;;6279722;28;20340;-65
2022/10/07 10:21:55;;;;;;;;;;;;;;;;;;6278143;28;20094;-69
2022/10/07 10:28:21;;;;;;;217.40;188.23;;;;;;;;;;6278332;28;20373;-66
2022/10/07 10:31:28;;;;;;;112.55;97.20;;;;;;;;;;6274592;28;20072;-64
2022/10/07 10:34:39;;;;;;;66.72;58.67;;;;;;;;;;6275006;28;20107;-66
2022/10/07 10:38:00;;;;;;;30.45;27.10;;;;;;;;;;6274624;28;20701;-65
2022/10/07 10:41:10;;;;;;;25.05;22.02;;;;;;;;;;6276689;28;20052;-65
2022/10/07 10:44:31;;;;;;;28.58;24.88;;;;;;;;;;6258549;28;20104;-66
2022/10/07 10:47:42;;;;;;;30.08;26.88;;;;;;;;;;6252807;28;20056;-65
2022/10/07 10:50:52;;;;;;;28.13;22.52;;;;;;;;;;6254834;28;20237;-66
2022/10/07 10:54:08;;;;;;;33.40;29.95;;;;;;;;;;6257246;28;20045;-66
2022/10/07 10:57:15;;;;;;;32.45;26.88;;;;;;;;;;6252552;28;20128;-66
2022/10/07 11:00:19;;;;;;;29.08;23.05;;;;;;;;;;6252586;28;20156;-67
2022/10/07 11:03:34;;;;;;;27.67;22.63;;;;;;;;;;6257320;28;20290;-66
2022/10/07 11:06:37;;;;;;;24.92;22.38;;;;;;;;;;6257667;28;20113;-65
2022/10/07 11:09:41;;;;;;;23.77;21.23;;;;;;;;;;6267157;28;20351;-67
2022/10/07 11:12:46;;;;;;;26.80;20.55;;;;;;;;;;6276411;28;20053;-67
2022/10/07 11:15:50;;;;;;;23.33;20.75;;;;;;;;;;6273734;28;20098;-67
2022/10/07 11:18:56;;;;;;;23.75;18.15;;;;;;;;;;6272748;28;20127;-66
2022/10/07 11:21:59;;;;;;;29.02;26.15;;;;;;;;;;6272404;28;20387;-66
2022/10/07 11:25:08;;;;;;;25.67;22.70;;;;;;;;;;6274770;28;20080;-67
2022/10/07 11:28:17;;;;;;;26.73;22.02;;;;;;;;;;6275677;28;20052;-65
2022/10/07 11:31:26;;;;;;;29.45;22.55;;;;;;;;;;6284131;28;20064;-67
2022/10/07 11:34:36;;;;;;;21.27;16.73;;;;;;;;;;6280418;28;20218;-64
2022/10/07 11:37:45;;;;;;;28.63;23.38;;;;;;;;;;6282512;28;20056;-66
2022/10/07 11:40:50;;;;;;;25.08;22.45;;;;;;;;;;6281788;28;20341;-65
2022/10/07 11:43:56;;;;;;;25.38;22.77;;;;;;;;;;6281904;28;20063;-65
2022/10/07 11:47:01;;;;;;;23.80;21.30;;;;;;;;;;6286941;28;20060;-65
2022/10/07 11:50:06;;;;;;;22.20;19.90;;;;;;;;;;6285017;28;20105;-65
2022/10/07 11:53:10;;;;;;;20.58;18.15;;;;;;;;;;6282905;28;20103;-63
2022/10/07 11:56:19;;;;;;;22.90;20.48;;;;;;;;;;6276139;28;20332;-65
2022/10/07 11:59:33;;;;;;;24.27;21.77;;;;;;;;;;6282854;28;20351;-65
2022/10/07 12:02:45;;;;;;;23.00;20.27;;;;;;;;;;6254038;28;20049;-64
2022/10/07 12:06:08;;;;;;;22.13;19.85;;;;;;;;;;6275167;28;20116;-66
2022/10/07 12:09:43;;;;;;;21.98;19.73;;;;;;;;;;6279698;28;20053;-65
2022/10/07 12:12:50;;;;;;;17.40;15.70;;;;;;;;;;6279988;28;20059;-65
2022/10/07 12:15:54;;;;;;;22.75;20.35;;;;;;;;;;6287867;28;20040;-67
2022/10/07 12:19:16;;;;;;;19.17;17.15;;;;;;;;;;6278633;28;20099;-66
2022/10/07 12:22:18;;;;;;;16.30;12.23;;;;;;;;;;6284045;28;20049;-65
2022/10/07 12:25:31;;;;;;;14.23;11.77;;;;;;;;;;6280813;28;20053;-68
2022/10/07 12:28:35;;;;;;;12.30;10.18;;;;;;;;;;6280383;28;20049;-65
2022/10/07 12:31:47;;;;;;;17.58;14.02;;;;;;;;;;6276319;28;20064;-67
2022/10/07 12:34:49;;;;;;;13.93;11.65;;;;;;;;;;6282082;28;20056;-67
2022/10/07 12:37:51;;;;;;;;;;;;;;;;;;6283920;28;20051;-67
2022/10/07 12:41:23;;;;;;;15.93;10.68;;;;;;;;;;6287340;28;19916;-66
2022/10/07 12:44:29;;;;;;;28.15;14.55;;;;;;;;;;6270029;28;20116;-65
2022/10/07 12:47:33;;;;;;;18.15;10.80;;;;;;;;;;6283047;28;20063;-65
2022/10/07 12:50:34;;;;;;;15.77;11.93;;;;;;;;;;6282421;28;20044;-65
2022/10/07 12:53:40;;;;;;;;;;;;;;;;;;6282419;28;20055;-66
2022/10/07 12:56:43;;;;;;;14.27;12.75;;;;;;;;;;6277382;28;19971;-65
2022/10/07 12:59:52;;;;;;;15.27;13.68;;;;;;;;;;6276892;28;20107;-65
2022/10/07 13:03:29;;;;;;;19.35;12.50;;;;;;;;;;6275087;28;20052;-65
2022/10/07 13:07:06;;;;;;;11.48;10.25;;;;;;;;;;6269354;28;20134;-64
2022/10/07 13:10:48;;;;;;;12.73;10.82;;;;;;;;;;6272197;28;20329;-66
2022/10/07 13:13:54;;;;;;;13.20;9.23;;;;;;;;;;6229250;28;20336;-63
2022/10/07 13:16:59;;;;;;;12.15;10.15;;;;;;;;;;6225060;28;20088;-64
2022/10/07 13:20:12;;;;;;;17.75;15.48;;;;;;;;;;6224719;28;20323;-64
2022/10/07 13:23:16;;;;;;;14.35;10.57;;;;;;;;;;6226333;28;20088;-63
2022/10/07 13:26:19;;;;;;;128.43;16.98;;;;;;;;;;6231749;28;20151;-64
2022/10/07 13:29:23;;;;;;;448.20;40.35;;;;;;;;;;6227858;28;20050;-64
2022/10/07 13:32:28;;;;;;;24.35;13.30;;;;;;;;;;6231730;28;20049;-63
2022/10/07 13:35:32;;;;;;;18.23;10.80;;;;;;;;;;6230871;28;20063;-63
2022/10/07 13:38:35;;;;;;;15.73;9.88;;;;;;;;;;6230073;28;20108;-63
2022/10/07 13:41:39;;;;;;;16.02;13.73;;;;;;;;;;6231038;28;20188;-65
2022/10/07 13:44:42;;;;;;;15.10;10.10;;;;;;;;;;6223420;28;20290;-64
2022/10/07 13:47:45;;;;;;;17.20;8.50;;;;;;;;;;6256399;28;20140;-66
2022/10/07 13:50:49;;;;;;;14.40;8.60;;;;;;;;;;6279309;28;20063;-67
2022/10/07 13:53:54;;;;;;;9.98;8.98;;;;;;;;;;6277830;28;20067;-65
2022/10/07 13:56:56;;;;;;;13.07;9.60;;;;;;;;;;6275745;28;20112;-63
2022/10/07 13:59:58;;;;;;;10.20;7.88;;;;;;;;;;6282948;28;20041;-65
2022/10/07 14:03:00;;;;;;;10.32;8.02;;;;;;;;;;6279089;28;20291;-63
2022/10/07 14:06:03;;;;;;;9.70;8.25;;;;;;;;;;6278261;28;20094;-62
2022/10/07 14:09:16;;;;;;;12.70;10.15;;;;;;;;;;6279622;28;20044;-64
2022/10/07 14:12:20;;;;;;;19.02;9.88;;;;;;;;;;6279795;28;20067;-65
2022/10/07 14:15:23;;;;;;;17.27;10.30;;;;;;;;;;6280734;28;20114;-64
2022/10/07 14:18:26;;;;;;;21.45;8.82;;;;;;;;;;6278489;28;20049;-66
2022/10/07 14:21:33;;;;;;;13.95;10.35;;;;;;;;;;6272722;28;20442;-65
2022/10/07 14:24:35;;;;;;;17.70;12.45;;;;;;;;;;6274351;28;20115;-65
2022/10/07 14:28:06;;;;;;;12.77;9.80;;;;;;;;;;6270560;28;20053;-64
2022/10/07 14:38:24;;;;;;;21.77;10.63;;;;;;;;;;6277793;28;20241;-65
2022/10/07 14:41:27;;;;;;;251.43;30.95;;;;;;;;;;6272356;28;20066;-65
2022/10/07 14:44:30;;;;;;;38.80;11.43;;;;;;;;;;6280713;28;20045;-64
2022/10/07 14:47:32;;;;;;;14.75;10.57;;;;;;;;;;6275926;28;20626;-66
2022/10/07 14:50:34;;;;;;;;;;;;;;;;;;6277845;28;20068;-65
2022/10/07 14:53:37;;;;;;;17.08;9.50;;;;;;;;;;6270022;28;20003;-64
2022/10/07 14:56:39;;;;;;;17.35;11.15;;;;;;;;;;6273226;28;20064;-63
2022/10/07 14:59:41;;;;;;;15.15;11.43;;;;;;;;;;6271498;28;20186;-64
2022/10/07 15:02:42;;;;;;;17.77;9.00;;;;;;;;;;6274460;28;20194;-66
2022/10/07 15:05:44;;;;;;;9.30;7.27;;;;;;;;;;6275417;28;20524;-63
2022/10/07 15:08:48;;;;;;;10.43;7.43;;;;;;;;;;6272924;28;20467;-63
2022/10/07 15:11:50;;;;;;;10.88;7.20;;;;;;;;;;6277003;28;20052;-65
2022/10/07 15:14:51;;;;;;;11.75;7.72;;;;;;;;;;6273183;28;20048;-63
2022/10/07 15:17:53;;;;;;;11.10;6.85;;;;;;;;;;6284089;28;20347;-63
2022/10/07 15:20:56;;;;;;;12.52;8.95;;;;;;;;;;6277326;28;20490;-64
2022/10/07 15:24:00;;;;;;;12.30;8.88;;;;;;;;;;6271769;28;20242;-64
2022/10/07 15:27:02;;;;;;;12.57;8.48;;;;;;;;;;6275708;28;20064;-63
2022/10/07 15:30:05;;;;;;;11.63;8.18;;;;;;;;;;6270371;28;20057;-63
2022/10/07 15:33:09;;;;;;;12.57;8.48;;;;;;;;;;6275862;28;20052;-62
2022/10/07 15:36:12;;;;;;;10.35;7.18;;;;;;;;;;6266971;28;20045;-64
2022/10/07 15:39:15;;;;;;;10.65;7.00;;;;;;;;;;6273631;28;20355;-63
2022/10/07 15:42:17;;;;;;;10.32;6.78;;;;;;;;;;6273943;28;20061;-62
2022/10/07 15:45:19;;;;;;;10.90;7.13;;;;;;;;;;6274289;28;20057;-62
2022/10/07 15:48:22;;;;;;;10.70;7.57;;;;;;;;;;6272165;28;20056;-63
2022/10/07 15:51:25;;;;;;;12.77;7.70;;;;;;;;;;6274069;28;20128;-63
2022/10/07 15:54:28;;;;;;;12.98;7.45;;;;;;;;;;6276836;28;20040;-63
2022/10/07 15:57:29;;;;;;;10.32;7.53;;;;;;;;;;6273604;28;20099;-62
2022/10/07 16:00:31;;;;;;;10.93;6.90;;;;;;;;;;6249224;28;20245;-62
2022/10/07 16:03:37;;;;;;;12.45;6.13;;;;;;;;;;6248942;28;20053;-64
2022/10/07 16:06:39;;;;;;;12.15;7.47;;;;;;;;;;6242758;28;20272;-61
2022/10/07 16:09:42;;;;;;;17.08;8.40;;;;;;;;;;6248326;28;20061;-63
2022/10/07 16:12:43;;;;;;;;;;;;;;;;;;6249029;28;20049;-63
2022/10/07 16:15:55;;;;;;;17.13;8.35;;;;;;;;;;6246155;28;19921;-63
2022/10/07 16:18:58;;;;;;;12.60;7.85;;;;;;;;;;6246596;28;20054;-62
2022/10/07 16:22:00;;;;;;;;;;;;;;;;;;6237351;28;20324;-63
2022/10/07 16:25:03;;;;;;;16.70;9.00;;;;;;;;;;6249481;28;20122;-62
2022/10/07 16:31:24;;;;;;;15.40;8.77;;;;;;;;;;6253367;28;20108;-63
2022/10/07 16:34:27;;;;;;;17.48;8.85;;;;;;;;;;6249966;28;20111;-63
2022/10/07 16:37:29;;;;;;;14.35;7.50;;;;;;;;;;6248157;28;20113;-64
2022/10/07 16:40:33;;;;;;;17.50;8.07;;;;;;;;;;6251054;28;20061;-62
2022/10/07 16:43:35;;;;;;;18.33;8.30;;;;;;;;;;6249511;28;20198;-64
2022/10/07 16:46:37;;;;;;;24.60;9.70;;;;;;;;;;6248323;28;20064;-65
2022/10/07 16:49:39;;;;;;;16.15;8.55;;;;;;;;;;6249977;28;20064;-63
2022/10/07 16:52:40;;;;;;;14.93;8.80;;;;;;;;;;6270238;28;20068;-62
2022/10/07 16:55:43;;;;;;;148.95;97.55;;;;;;;;;;6273211;28;20363;-62
2022/10/07 16:58:45;;;;;;;;;;;;;;;;;;6278264;28;20045;-62
2022/10/07 17:01:48;;;;;;;290.85;169.05;;;;;;;;;;6279192;28;19999;-63
2022/10/07 17:04:49;;;;;;;115.60;65.20;;;;;;;;;;6273773;28;20057;-65
2022/10/07 17:07:51;;;;;;;71.22;42.95;;;;;;;;;;6281845;28;20243;-62
2022/10/07 17:10:54;;;;;;;20.77;12.27;;;;;;;;;;6270274;28;20064;-62
2022/10/07 17:13:57;;;;;;;22.67;13.23;;;;;;;;;;6274253;28;20049;-63
2022/10/07 17:16:59;;;;;;;18.80;12.50;;;;;;;;;;6273833;28;20060;-62
2022/10/07 17:20:01;;;;;;;77.40;48.03;;;;;;;;;;6275198;28;20126;-63
2022/10/07 17:23:02;;;;;;;186.13;120.38;;;;;;;;;;6278591;28;20052;-62
2022/10/07 17:26:06;;;;;;;49.15;27.13;;;;;;;;;;6276908;28;20068;-63
2022/10/07 17:29:10;;;;;;;32.58;15.30;;;;;;;;;;6276264;28;20056;-63
2022/10/07 17:32:13;;;;;;;32.65;13.23;;;;;;;;;;6277431;28;20057;-62
2022/10/07 17:35:15;;;;;;;29.20;12.43;;;;;;;;;;6277819;28;20269;-61
2022/10/07 17:38:17;;;;;;;40.22;14.50;;;;;;;;;;6281681;28;20337;-62
2022/10/07 17:41:22;;;;;;;31.33;14.53;;;;;;;;;;6277820;28;20273;-63
2022/10/07 17:44:24;;;;;;;28.45;13.40;;;;;;;;;;6273451;28;20336;-66
2022/10/07 17:47:26;;;;;;;23.52;13.55;;;;;;;;;;6280917;28;20052;-64
2022/10/07 17:50:27;;;;;;;18.42;12.93;;;;;;;;;;6275821;28;20092;-63
2022/10/07 17:53:31;;;;;;;22.10;14.00;;;;;;;;;;6279351;28;20299;-63
2022/10/07 17:56:34;;;;;;;19.23;13.38;;;;;;;;;;6280840;28;20107;-63
2022/10/07 17:59:37;;;;;;;23.90;12.07;;;;;;;;;;6281005;28;20240;-63
2022/10/07 18:02:39;;;;;;;20.25;13.48;;;;;;;;;;6274448;28;20048;-63
2022/10/07 18:05:41;;;;;;;21.27;13.05;;;;;;;;;;6272168;28;20052;-64
2022/10/07 18:08:43;;;;;;;20.27;14.70;;;;;;;;;;6282192;28;20327;-63
2022/10/07 18:15:21;;;;;;;25.83;16.25;;;;;;;;;;6286661;28;20045;-63
2022/10/07 18:18:22;;;;;;;20.83;14.05;;;;;;;;;;6287294;28;20044;-63
2022/10/07 18:21:26;;;;;;;23.13;13.50;;;;;;;;;;6289224;28;20110;-63
2022/10/07 18:24:28;;;;;;;25.20;13.32;;;;;;;;;;6287737;28;20049;-63